createdAt,value
2022-08-18T00:00:25.273Z,1.70
2022-08-18T00:03:11.678Z,1.90
2022-08-18T00:06:13.294Z,1.80
2022-08-18T00:08:56.023Z,1.83
2022-08-18T00:11:42.364Z,1.65
2022-08-18T00:14:25.172Z,1.70
2022-08-18T00:17:07.980Z,1.63
2022-08-18T00:19:50.768Z,1.45
2022-08-18T00:22:33.647Z,2.00
2022-08-18T00:25:17.353Z,1.48
2022-08-18T00:28:01.625Z,1.75
2022-08-18T00:30:44.420Z,1.73
2022-08-18T00:33:28.467Z,1.90
2022-08-18T00:36:11.658Z,1.90
2022-08-18T00:38:54.545Z,2.20
2022-08-18T00:41:38.308Z,2.10
2022-08-18T00:44:22.484Z,2.08
2022-08-18T00:47:05.273Z,2.35
2022-08-18T00:49:50.084Z,2.28
2022-08-18T00:52:33.920Z,2.38
2022-08-18T00:55:18.324Z,1.98
2022-08-18T00:58:03.740Z,2.08
2022-08-18T01:00:48.286Z,1.85
2022-08-18T01:03:33.617Z,2.17
2022-08-18T01:06:18.669Z,2.00
2022-08-18T01:09:01.781Z,2.00
2022-08-18T01:11:45.432Z,2.20
2022-08-18T01:14:28.253Z,1.70
2022-08-18T01:17:30.296Z,2.05
2022-08-18T01:20:33.888Z,1.90
2022-08-18T01:23:20.495Z,1.90
2022-08-18T01:26:04.132Z,2.00
2022-08-18T01:28:49.693Z,1.92
2022-08-18T01:31:37.959Z,1.73
2022-08-18T01:34:22.659Z,1.92
2022-08-18T01:37:06.521Z,1.80
2022-08-18T01:41:06.299Z,2.40
2022-08-18T01:42:53.311Z,1.80
2022-08-18T01:45:36.121Z,1.88
2022-08-18T01:48:19.956Z,2.13
2022-08-18T01:51:04.339Z,2.35
2022-08-18T01:53:48.681Z,2.35
2022-08-18T01:56:32.826Z,2.17
2022-08-18T01:59:15.750Z,2.55
2022-08-18T02:02:01.790Z,2.15
2022-08-18T02:04:45.441Z,2.30
2022-08-18T02:07:45.112Z,2.42
2022-08-18T02:10:28.618Z,2.25
2022-08-18T02:13:13.047Z,2.20
2022-08-18T02:15:55.989Z,2.00
2022-08-18T02:18:48.363Z,2.00
2022-08-18T02:21:31.865Z,2.30
2022-08-18T02:24:14.709Z,2.30
2022-08-18T02:26:58.180Z,1.90
2022-08-18T02:29:42.542Z,2.20
2022-08-18T02:32:25.359Z,2.40
2022-08-18T02:35:12.533Z,2.03
2022-08-18T02:37:55.494Z,2.28
2022-08-18T02:40:38.499Z,2.42
2022-08-18T02:43:21.534Z,2.13
2022-08-18T02:46:14.074Z,2.30
2022-08-18T02:48:56.955Z,2.30
2022-08-18T02:51:39.751Z,2.40
2022-08-18T02:54:23.730Z,1.90
2022-08-18T02:57:08.082Z,2.42
2022-08-18T02:59:50.805Z,1.90
2022-08-18T03:02:34.967Z,2.20
2022-08-18T03:05:17.785Z,2.15
2022-08-18T03:08:00.709Z,2.28
2022-08-18T03:10:43.557Z,2.38
2022-08-18T03:13:26.548Z,2.42
2022-08-18T03:16:12.397Z,2.53
2022-08-18T03:18:56.576Z,2.97
2022-08-18T03:21:39.393Z,3.08
2022-08-18T03:24:23.676Z,3.05
2022-08-18T03:27:07.923Z,3.67
2022-08-18T03:29:51.275Z,3.25
2022-08-18T03:32:34.301Z,3.63
2022-08-18T03:35:18.609Z,3.05
2022-08-18T03:40:58.156Z,3.90
2022-08-18T03:43:51.020Z,3.50
2022-08-18T03:46:35.716Z,3.47
2022-08-18T03:49:19.310Z,3.85
2022-08-18T03:52:03.590Z,3.28
2022-08-18T03:54:46.818Z,3.42
2022-08-18T03:57:33.183Z,3.33
2022-08-18T04:00:23.584Z,3.58
2022-08-18T04:03:06.227Z,3.63
2022-08-18T04:05:48.926Z,3.45
2022-08-18T04:08:33.371Z,3.35
2022-08-18T04:11:16.123Z,3.33
2022-08-18T04:13:58.888Z,3.72
2022-08-18T04:16:45.688Z,3.20
2022-08-18T04:19:28.542Z,3.40
2022-08-18T04:22:11.333Z,3.35
2022-08-18T04:25:02.476Z,3.60
2022-08-18T04:27:45.167Z,3.78
2022-08-18T04:30:29.020Z,3.20
2022-08-18T04:33:11.774Z,3.25
2022-08-18T04:35:56.081Z,3.85
2022-08-18T04:38:39.232Z,3.65
2022-08-18T04:41:26.971Z,3.53
2022-08-18T04:44:10.600Z,3.45
2022-08-18T04:46:55.051Z,3.80
2022-08-18T04:49:38.154Z,3.60
2022-08-18T04:52:41.784Z,3.83
2022-08-18T04:55:24.751Z,3.97
2022-08-18T04:58:08.991Z,3.60
2022-08-18T05:00:57.831Z,3.78
2022-08-18T05:03:45.422Z,3.40
2022-08-18T05:06:33.620Z,3.70
2022-08-18T05:09:23.112Z,3.92
2022-08-18T05:12:07.243Z,3.45
2022-08-18T05:14:52.311Z,3.70
2022-08-18T05:17:39.522Z,3.42
2022-08-18T05:20:23.263Z,3.70
2022-08-18T05:23:06.150Z,3.63
2022-08-18T05:25:49.039Z,3.75
2022-08-18T05:28:37.672Z,4.22
2022-08-18T05:31:23.674Z,4.20
2022-08-18T05:34:07.521Z,3.65
2022-08-18T05:36:59.401Z,4.15
2022-08-18T05:39:48.538Z,3.92
2022-08-18T05:42:36.416Z,3.78
2022-08-18T05:45:21.351Z,4.18
2022-08-18T05:48:05.571Z,4.13
2022-08-18T05:50:48.878Z,4.45
2022-08-18T05:53:47.268Z,4.45
2022-08-18T05:56:47.562Z,4.05
2022-08-18T05:59:32.737Z,4.57
2022-08-18T06:02:19.578Z,4.40
2022-08-18T06:05:05.450Z,4.70
2022-08-18T06:07:52.038Z,4.90
2022-08-18T06:10:35.415Z,4.80
2022-08-18T06:13:20.177Z,4.43
2022-08-18T06:16:10.378Z,4.40
2022-08-18T06:18:55.721Z,4.25
2022-08-18T06:21:46.009Z,4.60
2022-08-18T06:24:32.610Z,4.68
2022-08-18T06:27:19.230Z,4.90
2022-08-18T06:30:05.456Z,4.60
2022-08-18T06:32:57.299Z,4.85
2022-08-18T06:35:43.319Z,5.18
2022-08-18T06:38:40.793Z,5.57
2022-08-18T06:41:41.618Z,5.30
2022-08-18T06:44:35.479Z,5.30
2022-08-18T06:47:21.797Z,4.75
2022-08-18T06:50:06.528Z,4.75
2022-08-18T06:52:53.885Z,5.03
2022-08-18T06:55:39.060Z,5.57
2022-08-18T06:58:26.201Z,5.63
2022-08-18T07:01:12.148Z,4.80
2022-08-18T07:03:59.203Z,5.88
2022-08-18T07:06:41.963Z,6.05
2022-08-18T07:09:25.707Z,5.75
2022-08-18T07:12:10.945Z,6.10
2022-08-18T07:14:56.313Z,6.82
2022-08-18T07:17:43.489Z,6.55
2022-08-18T07:20:27.490Z,7.10
2022-08-18T07:23:10.706Z,7.90
2022-08-18T07:25:59.881Z,8.63
2022-08-18T07:28:45.298Z,8.35
2022-08-18T07:31:36.040Z,8.13
2022-08-18T07:34:21.109Z,7.95
2022-08-18T07:37:05.588Z,7.63
2022-08-18T07:39:51.526Z,8.52
2022-08-18T07:43:01.652Z,9.25
2022-08-18T07:45:45.396Z,10.25
2022-08-18T07:48:38.015Z,10.02
2022-08-18T07:51:24.443Z,9.93
2022-08-18T07:54:31.194Z,15.23
2022-08-18T07:57:20.330Z,15.13
2022-08-18T08:00:11.262Z,15.90
2022-08-18T08:03:10.161Z,15.70
2022-08-18T08:05:56.089Z,16.95
2022-08-18T08:08:43.373Z,18.13
2022-08-18T08:11:34.086Z,16.65
2022-08-18T08:14:30.643Z,18.83
2022-08-18T08:17:19.496Z,17.02
2022-08-18T08:20:10.294Z,16.63
2022-08-18T08:23:01.538Z,16.65
2022-08-18T08:25:50.683Z,17.00
2022-08-18T08:28:40.539Z,16.58
2022-08-18T08:31:43.059Z,18.60
2022-08-18T08:34:29.005Z,19.58
2022-08-18T08:37:16.246Z,18.42
2022-08-18T08:40:01.914Z,16.15
2022-08-18T08:42:49.066Z,15.18
2022-08-18T08:45:33.521Z,14.13
2022-08-18T08:48:19.903Z,14.27
2022-08-18T08:51:04.888Z,13.35
2022-08-18T08:53:54.454Z,12.98
2022-08-18T08:56:41.887Z,13.75
2022-08-18T08:59:25.716Z,15.13
2022-08-18T09:02:37.886Z,15.02
2022-08-18T09:05:22.890Z,15.27
2022-08-18T09:08:20.145Z,15.75
2022-08-18T09:11:18.933Z,16.58
2022-08-18T09:14:19.303Z,15.10
2022-08-18T09:17:12.111Z,14.98
2022-08-18T09:20:01.154Z,13.75
2022-08-18T09:22:48.484Z,12.43
2022-08-18T09:25:33.035Z,11.98
2022-08-18T09:28:18.264Z,12.43
2022-08-18T09:31:19.427Z,11.68
2022-08-18T09:34:14.802Z,12.73
2022-08-18T09:37:04.196Z,13.48
2022-08-18T09:40:13.088Z,13.50
2022-08-18T09:42:58.914Z,13.10
2022-08-18T09:45:59.685Z,12.95
2022-08-18T09:48:46.135Z,10.95
2022-08-18T09:51:40.124Z,12.25
2022-08-18T09:54:25.324Z,12.48
2022-08-18T09:57:19.453Z,10.73
2022-08-18T10:00:24.415Z,11.02
2022-08-18T10:03:17.263Z,12.45
2022-08-18T10:06:19.134Z,12.02
2022-08-18T10:09:27.072Z,13.35
2022-08-18T10:12:27.727Z,12.27
2022-08-18T10:15:27.009Z,12.00
2022-08-18T10:18:26.194Z,13.90
2022-08-18T10:21:15.008Z,12.73
2022-08-18T10:24:21.933Z,11.98
2022-08-18T10:27:04.809Z,11.45
2022-08-18T10:29:56.587Z,12.77
2022-08-18T10:32:44.308Z,12.23
2022-08-18T10:35:52.622Z,13.20
2022-08-18T10:38:46.129Z,13.45
2022-08-18T10:41:32.721Z,12.05
2022-08-18T10:44:28.915Z,12.55
2022-08-18T10:47:21.236Z,13.15
2022-08-18T10:50:10.693Z,12.50
2022-08-18T10:53:35.000Z,10.07
2022-08-18T10:56:12.434Z,11.02
2022-08-18T10:59:05.600Z,10.60
2022-08-18T11:01:57.140Z,12.40
2022-08-18T11:04:44.050Z,12.40
2022-08-18T11:07:34.115Z,11.50
2022-08-18T11:10:57.675Z,11.13
2022-08-18T11:13:28.367Z,11.27
2022-08-18T11:16:14.209Z,11.35
2022-08-18T11:18:58.886Z,12.73
2022-08-18T11:21:44.526Z,12.95
2022-08-18T11:24:30.034Z,12.73
2022-08-18T11:27:18.691Z,11.90
2022-08-18T11:30:02.261Z,12.70
2022-08-18T11:32:52.228Z,13.00
2022-08-18T11:35:46.312Z,12.32
2022-08-18T11:38:33.108Z,11.32
2022-08-18T11:41:20.251Z,11.45
2022-08-18T11:44:04.978Z,10.35
2022-08-18T11:46:52.620Z,11.48
2022-08-18T11:49:38.403Z,10.93
2022-08-18T11:55:31.717Z,11.90
2022-08-18T11:58:38.307Z,11.60
2022-08-18T12:01:41.885Z,12.70
2022-08-18T12:04:30.111Z,10.98
2022-08-18T12:07:20.526Z,10.70
2022-08-18T12:10:18.134Z,9.60
2022-08-18T12:13:02.803Z,9.48
2022-08-18T12:15:47.784Z,9.23
2022-08-18T12:18:31.606Z,8.93
2022-08-18T12:21:14.761Z,9.80
2022-08-18T12:23:57.688Z,10.05
2022-08-18T12:29:44.725Z,8.10
2022-08-18T12:32:46.531Z,7.53
2022-08-18T12:35:32.693Z,7.93
2022-08-18T12:38:18.940Z,9.27
2022-08-18T12:41:01.669Z,7.95
2022-08-18T12:43:46.077Z,8.00
2022-08-18T12:46:42.829Z,7.57
2022-08-18T12:49:27.188Z,9.02
2022-08-18T12:52:11.997Z,2.40
2022-08-18T12:54:56.946Z,3.72
2022-08-18T12:57:53.485Z,1.35
2022-08-18T13:00:37.093Z,1.20
2022-08-18T13:03:20.603Z,0.70
2022-08-18T13:06:05.032Z,0.70
2022-08-18T13:08:50.301Z,0.50
2022-08-18T13:11:33.946Z,0.40
2022-08-18T13:14:18.254Z,0.40
2022-08-18T13:17:01.502Z,0.50
2022-08-18T13:19:44.590Z,0.50
2022-08-18T13:22:32.440Z,0.40
2022-08-18T13:25:28.863Z,0.47
2022-08-18T13:28:16.503Z,0.20
2022-08-18T13:31:02.845Z,0.40
2022-08-18T13:33:57.271Z,0.40
2022-08-18T13:36:48.415Z,0.40
2022-08-18T13:39:34.520Z,0.45
2022-08-18T13:42:26.292Z,0.50
2022-08-18T13:45:24.710Z,0.40
2022-08-18T13:48:08.546Z,0.45
2022-08-18T13:50:54.029Z,0.40
2022-08-18T13:53:51.110Z,0.50
2022-08-18T13:56:51.547Z,0.63
2022-08-18T13:59:35.132Z,0.30
2022-08-18T14:02:19.956Z,0.35
2022-08-18T14:05:10.400Z,0.40
2022-08-18T14:07:54.236Z,0.30
2022-08-18T14:10:40.115Z,0.25
2022-08-18T14:13:25.367Z,0.30
2022-08-18T14:16:16.134Z,0.30
2022-08-18T14:19:19.410Z,0.30
2022-08-18T14:22:23.416Z,0.47
2022-08-18T14:25:26.090Z,0.30
2022-08-18T14:28:11.836Z,0.47
2022-08-18T14:30:57.259Z,0.40
2022-08-18T14:33:50.544Z,0.30
2022-08-18T14:36:35.367Z,0.45
2022-08-18T14:39:18.314Z,0.30
2022-08-18T14:42:03.041Z,0.20
2022-08-18T14:44:46.280Z,0.35
2022-08-18T14:47:31.473Z,0.40
2022-08-18T14:50:14.983Z,0.25
2022-08-18T14:53:02.195Z,0.40
2022-08-18T14:55:44.952Z,0.50
2022-08-18T14:58:33.436Z,0.50
2022-08-18T15:01:16.341Z,0.40
2022-08-18T15:04:18.373Z,0.30
2022-08-18T15:07:01.752Z,0.22
2022-08-18T15:09:44.450Z,0.40
2022-08-18T15:12:28.419Z,0.40
2022-08-18T15:15:18.063Z,0.40
2022-08-18T15:18:01.145Z,0.40
2022-08-18T15:20:59.275Z,0.60
2022-08-18T15:23:59.604Z,0.63
2022-08-18T15:26:43.878Z,0.60
2022-08-18T15:29:28.044Z,1.05
2022-08-18T15:32:15.264Z,0.70
2022-08-18T15:35:00.712Z,0.57
2022-08-18T15:37:56.039Z,0.47
2022-08-18T15:40:41.558Z,0.30
2022-08-18T15:43:29.177Z,0.35
2022-08-18T15:46:16.862Z,0.50
2022-08-18T15:49:00.097Z,2.03
2022-08-18T15:51:45.235Z,1.70
2022-08-18T15:54:29.791Z,1.52
2022-08-18T15:57:24.304Z,1.88
2022-08-18T16:00:17.919Z,1.48
2022-08-18T16:03:01.660Z,1.80
2022-08-18T16:05:48.775Z,3.72
2022-08-18T16:08:33.282Z,3.40
2022-08-18T16:11:28.848Z,3.33
2022-08-18T16:14:12.648Z,3.67
2022-08-18T16:16:56.180Z,3.47
2022-08-18T16:19:39.083Z,3.67
2022-08-18T16:22:22.020Z,4.32
2022-08-18T16:25:06.782Z,3.25
2022-08-18T16:27:51.417Z,3.50
2022-08-18T16:30:34.638Z,3.50
2022-08-18T16:33:17.430Z,3.55
2022-08-18T16:36:03.384Z,3.47
2022-08-18T16:38:47.079Z,3.40
2022-08-18T16:41:31.791Z,2.97
2022-08-18T16:44:17.052Z,2.50
2022-08-18T16:47:01.920Z,2.90
2022-08-18T16:49:45.437Z,3.47
2022-08-18T16:52:28.270Z,3.00
2022-08-18T16:55:12.217Z,4.80
2022-08-18T16:58:23.924Z,4.07
2022-08-18T17:01:25.805Z,4.20
2022-08-18T17:04:20.612Z,4.43
2022-08-18T17:07:04.976Z,4.75
2022-08-18T17:09:47.682Z,4.68
2022-08-18T17:12:30.756Z,4.57
2022-08-18T17:15:14.599Z,3.92
2022-08-18T17:17:58.753Z,4.32
2022-08-18T17:20:41.598Z,4.45
2022-08-18T17:23:24.586Z,4.35
2022-08-18T17:26:12.672Z,5.10
2022-08-18T17:28:59.326Z,4.93
2022-08-18T17:31:43.802Z,4.78
2022-08-18T17:34:32.442Z,4.47
2022-08-18T17:37:17.809Z,4.25
2022-08-18T17:40:04.369Z,4.60
2022-08-18T17:42:51.544Z,4.85
2022-08-18T17:45:36.127Z,4.93
2022-08-18T17:48:21.831Z,4.45
2022-08-18T17:51:26.950Z,4.68
2022-08-18T17:54:13.680Z,4.47
2022-08-18T17:57:05.488Z,4.40
2022-08-18T17:59:52.139Z,4.32
2022-08-18T18:02:35.266Z,4.03
2022-08-18T18:05:20.385Z,4.18
2022-08-18T18:08:05.411Z,4.30
2022-08-18T18:11:05.581Z,4.00
2022-08-18T18:13:48.755Z,4.25
2022-08-18T18:16:35.453Z,3.80
2022-08-18T18:19:26.118Z,4.03
2022-08-18T18:22:10.842Z,3.90
2022-08-18T18:24:56.122Z,3.75
2022-08-18T18:27:41.794Z,3.88
2022-08-18T18:30:28.211Z,3.58
2022-08-18T18:33:16.237Z,3.58
2022-08-18T18:36:01.544Z,3.92
2022-08-18T18:38:49.032Z,3.80
2022-08-18T18:41:35.078Z,4.13
2022-08-18T18:44:27.494Z,3.70
2022-08-18T18:47:16.739Z,4.00
2022-08-18T18:50:04.146Z,4.03
2022-08-18T18:52:52.866Z,3.78
2022-08-18T18:55:40.479Z,3.70
2022-08-18T18:58:29.147Z,3.50
2022-08-18T19:01:19.292Z,3.58
2022-08-18T19:04:04.605Z,3.45
2022-08-18T19:06:50.456Z,4.03
2022-08-18T19:09:38.438Z,3.78
2022-08-18T19:12:25.214Z,3.90
2022-08-18T19:15:14.900Z,3.30
2022-08-18T19:18:00.082Z,3.63
2022-08-18T19:22:02.373Z,3.40
2022-08-18T19:23:50.881Z,3.28
2022-08-18T19:26:37.587Z,3.40
2022-08-18T19:29:23.347Z,4.10
2022-08-18T19:32:11.462Z,3.40
2022-08-18T19:34:58.649Z,3.50
2022-08-18T19:37:50.734Z,3.60
2022-08-18T19:40:37.859Z,3.40
2022-08-18T19:43:26.571Z,3.70
2022-08-18T19:46:19.621Z,4.20
2022-08-18T19:49:06.089Z,4.30
2022-08-18T19:51:50.903Z,3.45
2022-08-18T19:54:46.500Z,4.00
2022-08-18T19:57:37.686Z,3.58
2022-08-18T20:00:23.470Z,3.65
2022-08-18T20:03:20.602Z,3.45
2022-08-18T20:06:33.802Z,4.10
2022-08-18T20:09:34.882Z,4.60
2022-08-18T20:12:37.562Z,3.42
2022-08-18T20:15:23.143Z,3.42
2022-08-18T20:18:19.479Z,3.65
2022-08-18T20:21:21.358Z,4.00
2022-08-18T20:24:08.400Z,3.80
2022-08-18T20:26:51.475Z,3.85
2022-08-18T20:29:42.274Z,4.00
2022-08-18T20:32:34.615Z,3.90
2022-08-18T20:35:18.921Z,3.75
2022-08-18T20:38:13.119Z,3.50
2022-08-18T20:40:59.657Z,3.80
2022-08-18T20:43:42.827Z,3.20
2022-08-18T20:46:32.506Z,3.70
2022-08-18T20:49:21.682Z,3.10
2022-08-18T20:52:13.096Z,3.30
2022-08-18T20:55:00.104Z,3.22
2022-08-18T20:57:48.942Z,3.60
2022-08-18T21:00:36.575Z,3.05
2022-08-18T21:03:20.688Z,3.75
2022-08-18T21:06:03.814Z,3.65
2022-08-18T21:08:48.483Z,3.60
2022-08-18T21:11:37.162Z,3.63
2022-08-18T21:14:29.773Z,3.90
2022-08-18T21:17:14.227Z,4.50
2022-08-18T21:20:01.145Z,4.13
2022-08-18T21:22:44.932Z,4.00
2022-08-18T21:25:28.400Z,3.60
2022-08-18T21:28:12.815Z,3.70
2022-08-18T21:31:42.600Z,3.45
2022-08-18T21:34:04.716Z,3.60
2022-08-18T21:36:51.413Z,3.60
2022-08-18T21:39:34.640Z,3.70
2022-08-18T21:42:19.115Z,3.83
2022-08-18T21:45:02.023Z,3.80
2022-08-18T21:47:51.197Z,3.72
2022-08-18T21:50:35.028Z,3.53
2022-08-18T21:53:20.959Z,3.63
2022-08-18T21:56:03.927Z,4.45
2022-08-18T21:58:47.149Z,3.95
2022-08-18T22:01:29.988Z,4.22
2022-08-18T22:04:24.250Z,4.05
2022-08-18T22:07:08.612Z,3.40
2022-08-18T22:10:39.641Z,4.00
2022-08-18T22:13:41.402Z,3.65
2022-08-18T22:16:29.279Z,3.95
2022-08-18T22:19:22.321Z,4.43
2022-08-18T22:22:27.249Z,3.72
2022-08-18T22:25:11.705Z,4.50
2022-08-18T22:27:57.377Z,3.85
2022-08-18T22:30:42.069Z,3.97
2022-08-18T22:33:24.780Z,4.10
2022-08-18T22:36:15.042Z,3.72
2022-08-18T22:39:00.588Z,4.47
2022-08-18T22:41:46.247Z,4.40
2022-08-18T22:44:29.170Z,4.85
2022-08-18T22:47:12.518Z,5.05
2022-08-18T22:49:55.204Z,4.72
2022-08-18T22:52:42.032Z,4.65
2022-08-18T22:55:26.134Z,6.05
2022-08-18T22:58:11.726Z,6.07
2022-08-18T23:01:05.536Z,5.97
2022-08-18T23:03:49.071Z,4.95
2022-08-18T23:06:31.829Z,5.15
2022-08-18T23:09:14.656Z,5.40
2022-08-18T23:12:00.321Z,5.28
2022-08-18T23:14:45.909Z,6.00
2022-08-18T23:17:28.617Z,5.45
2022-08-18T23:20:17.928Z,5.90
2022-08-18T23:23:02.191Z,5.03
2022-08-18T23:25:44.976Z,6.00
2022-08-18T23:28:29.066Z,5.70
2022-08-18T23:31:15.080Z,5.07
2022-08-18T23:34:01.605Z,5.18
2022-08-18T23:36:45.984Z,5.93
2022-08-18T23:39:30.168Z,6.88
2022-08-18T23:42:13.245Z,5.90
2022-08-18T23:45:04.024Z,6.68
2022-08-18T23:47:47.029Z,6.28
2022-08-18T23:50:34.199Z,5.85
2022-08-18T23:53:18.819Z,5.80
2022-08-18T23:56:01.629Z,5.85
2022-08-18T23:58:45.687Z,4.75
